createdAt,value
2023-03-31T00:03:38.925Z,162.20
2023-03-31T00:07:42.153Z,163.35
2023-03-31T00:11:45.107Z,160.40
2023-03-31T00:15:49.438Z,161.65
2023-03-31T00:19:52.443Z,165.90
2023-03-31T00:23:57.071Z,166.80
2023-03-31T00:28:00.050Z,166.97
2023-03-31T00:32:04.471Z,164.95
2023-03-31T00:36:08.287Z,167.55
2023-03-31T00:40:12.603Z,168.20
2023-03-31T00:44:18.940Z,167.50
2023-03-31T00:48:25.254Z,165.50
2023-03-31T00:52:35.657Z,166.60
2023-03-31T00:56:42.330Z,168.17
2023-03-31T01:00:45.488Z,169.10
2023-03-31T01:04:54.871Z,168.17
2023-03-31T01:08:58.654Z,167.55
2023-03-31T01:13:01.799Z,165.60
2023-03-31T01:17:05.627Z,167.70
2023-03-31T01:21:47.598Z,166.70
2023-03-31T01:26:11.855Z,166.57
2023-03-31T01:30:41.716Z,167.20
2023-03-31T01:35:28.341Z,166.60
2023-03-31T01:40:09.902Z,165.00
2023-03-31T01:44:22.229Z,166.30
2023-03-31T01:48:39.274Z,167.50
2023-03-31T01:52:48.074Z,168.85
2023-03-31T01:56:56.433Z,171.20
2023-03-31T02:01:03.667Z,166.80
2023-03-31T02:05:11.861Z,167.90
2023-03-31T02:09:19.188Z,167.70
2023-03-31T02:13:26.701Z,169.90
2023-03-31T02:17:32.690Z,171.15
2023-03-31T02:21:39.938Z,169.40
2023-03-31T02:25:47.864Z,170.40
2023-03-31T02:29:52.850Z,170.00
2023-03-31T02:33:56.470Z,169.15
2023-03-31T02:37:59.910Z,169.40
2023-03-31T02:42:07.161Z,170.05
2023-03-31T02:46:11.967Z,170.20
2023-03-31T02:50:15.037Z,170.85
2023-03-31T02:54:47.989Z,166.70
2023-03-31T02:59:08.583Z,170.20
2023-03-31T03:03:30.115Z,171.05
2023-03-31T03:07:38.675Z,170.20
2023-03-31T03:11:49.107Z,169.60
2023-03-31T03:15:57.015Z,169.63
2023-03-31T03:20:07.779Z,166.10
2023-03-31T03:24:10.927Z,169.70
2023-03-31T03:28:13.877Z,169.80
2023-03-31T03:32:16.921Z,171.35
2023-03-31T03:36:23.090Z,166.80
2023-03-31T03:40:28.223Z,166.90
2023-03-31T03:44:31.181Z,164.50
2023-03-31T03:48:34.157Z,166.37
2023-03-31T03:52:39.234Z,166.10
2023-03-31T03:56:42.324Z,164.15
2023-03-31T04:00:46.228Z,159.50
2023-03-31T04:04:49.210Z,158.20
2023-03-31T04:08:53.510Z,157.83
2023-03-31T04:12:56.461Z,156.60
2023-03-31T04:16:59.455Z,157.85
2023-03-31T04:21:05.043Z,156.73
2023-03-31T04:25:16.353Z,158.23
2023-03-31T04:29:20.695Z,159.30
2023-03-31T04:33:23.766Z,156.48
2023-03-31T04:37:28.302Z,158.20
2023-03-31T04:41:32.677Z,158.00
2023-03-31T04:45:36.705Z,159.80
2023-03-31T04:49:39.703Z,157.50
2023-03-31T04:53:48.994Z,159.50
2023-03-31T04:57:53.397Z,159.77
2023-03-31T05:02:00.723Z,160.30
2023-03-31T05:06:04.450Z,160.40
2023-03-31T05:10:09.247Z,158.90
2023-03-31T05:14:13.652Z,157.00
2023-03-31T05:18:16.671Z,157.25
2023-03-31T05:22:21.442Z,156.65
2023-03-31T05:26:25.428Z,157.20
2023-03-31T05:30:30.362Z,159.93
2023-03-31T05:34:33.571Z,159.60
2023-03-31T05:38:36.609Z,159.40
2023-03-31T05:42:40.000Z,155.15
2023-03-31T05:46:44.474Z,161.30
2023-03-31T05:50:47.582Z,160.67
2023-03-31T05:54:51.029Z,161.90
2023-03-31T05:58:54.039Z,160.20
2023-03-31T06:02:59.497Z,159.20
2023-03-31T06:07:02.641Z,159.20
2023-03-31T06:11:07.590Z,161.50
2023-03-31T06:15:11.451Z,161.90
2023-03-31T06:19:16.105Z,161.75
2023-03-31T06:23:19.385Z,162.50
2023-03-31T06:27:22.337Z,158.90
2023-03-31T06:31:26.561Z,161.33
2023-03-31T06:35:31.081Z,161.85
2023-03-31T06:39:34.087Z,163.10
2023-03-31T06:43:37.144Z,160.80
2023-03-31T06:47:41.588Z,163.30
2023-03-31T06:51:45.997Z,162.30
2023-03-31T06:55:49.377Z,162.40
2023-03-31T06:59:52.620Z,163.40
2023-03-31T07:03:55.985Z,162.73
2023-03-31T07:08:01.543Z,162.30
2023-03-31T07:12:05.470Z,160.40
2023-03-31T07:16:11.120Z,161.17
2023-03-31T07:20:16.331Z,161.90
2023-03-31T07:24:21.168Z,162.50
2023-03-31T07:28:24.421Z,161.20
2023-03-31T07:32:29.182Z,161.10
2023-03-31T07:36:33.059Z,162.00
2023-03-31T07:40:37.445Z,160.70
2023-03-31T07:44:40.507Z,160.30
2023-03-31T07:48:44.013Z,158.45
2023-03-31T07:52:47.509Z,159.25
2023-03-31T07:56:53.127Z,159.75
2023-03-31T08:00:56.325Z,157.50
2023-03-31T08:04:59.314Z,158.30
2023-03-31T08:09:02.297Z,157.50
2023-03-31T08:13:08.662Z,158.60
2023-03-31T08:17:12.256Z,157.30
2023-03-31T08:21:15.359Z,157.93
2023-03-31T08:25:18.532Z,159.35
2023-03-31T08:29:27.771Z,156.20
2023-03-31T08:33:30.854Z,155.70
2023-03-31T08:37:33.974Z,156.33
2023-03-31T08:41:47.454Z,157.57
2023-03-31T08:45:54.166Z,156.85
2023-03-31T08:50:03.843Z,157.60
2023-03-31T08:54:17.299Z,158.00
2023-03-31T08:58:33.322Z,157.80
2023-03-31T09:02:48.783Z,157.40
2023-03-31T09:06:59.997Z,156.90
2023-03-31T09:11:31.476Z,157.05
2023-03-31T09:15:41.079Z,156.97
2023-03-31T09:19:50.181Z,155.23
2023-03-31T09:23:59.987Z,157.27
2023-03-31T09:28:06.477Z,157.40
2023-03-31T09:32:16.880Z,157.05
2023-03-31T09:36:24.497Z,154.07
2023-03-31T09:40:29.722Z,157.37
